Doebay, Washington
Current Conditions -  °F | °C
As of 4:35 PM on Thursday 18 Dec 2014 (Local Time) from KORS Reporting Station
Light Rain Light Rain  
Wind Chill: 50°   Ceiling: Unl
Heat Index: 50°   Visibility: 8mi
Dew Point: 43°   Wind: 10mph
Humidity: 76%   Direction: 160°SSE
Pressure: 29.68"   Gusts: 29mph
Location:  48.6597°N, 122.828°W
Report Text: KORS 190035Z AUTO 16009G25KT 030V040 8SM -RA SCT031 10/06 A2968 RMK AO2
Loading
Personal Weather Stations






























Interactive Weather Map New forecast layout! Learn more

10-Day Weather Forecast

Advertisements
Track Severe Weather on mobile